sensor_id;sensor_type;location;lat;lon;timestamp;pressure;altitude;pressure_sealevel;temperature;humidity
82305;BME280;71914;47.382;8.168;2024-02-21T00:02:21;97894.69;;;1.80;91.54
82305;BME280;71914;47.382;8.168;2024-02-21T00:04:46;97892.88;;;1.82;91.36
82305;BME280;71914;47.382;8.168;2024-02-21T00:07:13;97892.13;;;1.80;91.80
82305;BME280;71914;47.382;8.168;2024-02-21T00:09:39;97890.38;;;1.80;92.16
82305;BME280;71914;47.382;8.168;2024-02-21T00:12:05;97888.72;;;1.78;91.71
82305;BME280;71914;47.382;8.168;2024-02-21T00:14:31;97880.75;;;1.84;92.27
82305;BME280;71914;47.382;8.168;2024-02-21T00:16:56;97881.44;;;1.89;91.96
82305;BME280;71914;47.382;8.168;2024-02-21T00:19:22;97881.53;;;1.86;91.73
82305;BME280;71914;47.382;8.168;2024-02-21T00:21:47;97884.06;;;1.88;91.94
82305;BME280;71914;47.382;8.168;2024-02-21T00:24:14;97870.97;;;1.92;91.92
82305;BME280;71914;47.382;8.168;2024-02-21T00:26:40;97864.03;;;1.94;92.12
82305;BME280;71914;47.382;8.168;2024-02-21T00:29:06;97863.16;;;1.94;92.21
82305;BME280;71914;47.382;8.168;2024-02-21T00:31:31;97866.72;;;1.91;92.31
82305;BME280;71914;47.382;8.168;2024-02-21T00:33:57;97859.06;;;1.88;91.72
82305;BME280;71914;47.382;8.168;2024-02-21T00:36:23;97867.78;;;1.86;92.18
82305;BME280;71914;47.382;8.168;2024-02-21T00:38:49;97865.28;;;1.82;92.15
82305;BME280;71914;47.382;8.168;2024-02-21T00:41:19;97853.28;;;1.81;92.37
82305;BME280;71914;47.382;8.168;2024-02-21T00:43:44;97849.69;;;1.86;92.47
82305;BME280;71914;47.382;8.168;2024-02-21T00:46:10;97849.47;;;1.92;92.82
82305;BME280;71914;47.382;8.168;2024-02-21T00:48:36;97847.72;;;1.92;92.85
82305;BME280;71914;47.382;8.168;2024-02-21T00:51:01;97844.25;;;1.93;92.78
82305;BME280;71914;47.382;8.168;2024-02-21T00:53:27;97852.81;;;1.94;92.67
82305;BME280;71914;47.382;8.168;2024-02-21T00:55:52;97851.03;;;1.96;91.88
82305;BME280;71914;47.382;8.168;2024-02-21T00:58:19;97843.63;;;1.61;89.35
82305;BME280;71914;47.382;8.168;2024-02-21T01:00:45;97850.13;;;1.48;88.82
82305;BME280;71914;47.382;8.168;2024-02-21T01:03:11;97863.22;;;0.91;91.13
82305;BME280;71914;47.382;8.168;2024-02-21T01:05:36;97859.53;;;0.72;92.55
82305;BME280;71914;47.382;8.168;2024-02-21T01:08:02;97857.78;;;0.72;94.73
82305;BME280;71914;47.382;8.168;2024-02-21T01:10:28;97859.44;;;1.02;96.46
82305;BME280;71914;47.382;8.168;2024-02-21T01:12:54;97860.13;;;1.07;94.82
82305;BME280;71914;47.382;8.168;2024-02-21T01:15:21;97860.47;;;1.23;95.71
82305;BME280;71914;47.382;8.168;2024-02-21T01:17:46;97857.88;;;1.48;96.38
82305;BME280;71914;47.382;8.168;2024-02-21T01:20:12;97862.47;;;1.65;95.99
82305;BME280;71914;47.382;8.168;2024-02-21T01:22:38;97853.28;;;1.81;95.90
82305;BME280;71914;47.382;8.168;2024-02-21T01:25:04;97850.19;;;1.95;95.74
82305;BME280;71914;47.382;8.168;2024-02-21T01:27:30;97854.31;;;2.01;94.80
82305;BME280;71914;47.382;8.168;2024-02-21T01:29:55;97849.47;;;2.15;94.83
82305;BME280;71914;47.382;8.168;2024-02-21T01:32:22;97846.81;;;2.17;94.54
82305;BME280;71914;47.382;8.168;2024-02-21T01:34:49;97852.09;;;2.14;93.51
82305;BME280;71914;47.382;8.168;2024-02-21T01:37:15;97848.53;;;2.16;94.01
82305;BME280;71914;47.382;8.168;2024-02-21T01:39:41;97853.84;;;2.13;93.74
82305;BME280;71914;47.382;8.168;2024-02-21T01:42:06;97846.19;;;2.10;93.87
82305;BME280;71914;47.382;8.168;2024-02-21T01:44:32;97839.13;;;2.15;94.23
82305;BME280;71914;47.382;8.168;2024-02-21T01:46:58;97829.59;;;2.16;93.62
82305;BME280;71914;47.382;8.168;2024-02-21T01:49:25;97819.38;;;2.13;93.63
82305;BME280;71914;47.382;8.168;2024-02-21T01:51:50;97822.81;;;2.13;93.78
82305;BME280;71914;47.382;8.168;2024-02-21T01:54:17;97819.69;;;2.05;93.13
82305;BME280;71914;47.382;8.168;2024-02-21T01:56:44;97812.94;;;2.01;93.39
82305;BME280;71914;47.382;8.168;2024-02-21T01:59:11;97815.63;;;1.98;93.67
82305;BME280;71914;47.382;8.168;2024-02-21T02:01:38;97804.38;;;1.99;93.85
82305;BME280;71914;47.382;8.168;2024-02-21T02:04:04;97800.28;;;1.93;92.73
82305;BME280;71914;47.382;8.168;2024-02-21T02:06:32;97794.25;;;1.93;93.74
82305;BME280;71914;47.382;8.168;2024-02-21T02:08:57;97789.81;;;1.96;93.77
82305;BME280;71914;47.382;8.168;2024-02-21T02:11:23;97795.94;;;1.94;93.87
82305;BME280;71914;47.382;8.168;2024-02-21T02:13:48;97779.63;;;1.93;94.14
82305;BME280;71914;47.382;8.168;2024-02-21T02:16:14;97776.91;;;1.96;94.26
82305;BME280;71914;47.382;8.168;2024-02-21T02:18:40;97770.63;;;2.04;94.73
82305;BME280;71914;47.382;8.168;2024-02-21T02:21:10;97757.69;;;2.04;94.33
82305;BME280;71914;47.382;8.168;2024-02-21T02:23:40;97753.34;;;2.04;94.43
82305;BME280;71914;47.382;8.168;2024-02-21T02:26:06;97755.72;;;2.09;94.91
82305;BME280;71914;47.382;8.168;2024-02-21T02:28:32;97759.06;;;2.12;94.38
82305;BME280;71914;47.382;8.168;2024-02-21T02:30:58;97760.63;;;1.94;91.46
82305;BME280;71914;47.382;8.168;2024-02-21T02:33:24;97754.78;;;1.89;91.12
82305;BME280;71914;47.382;8.168;2024-02-21T02:35:49;97751.41;;;1.87;90.85
82305;BME280;71914;47.382;8.168;2024-02-21T02:38:15;97755.69;;;1.88;91.04
82305;BME280;71914;47.382;8.168;2024-02-21T02:40:43;97743.09;;;1.79;91.07
82305;BME280;71914;47.382;8.168;2024-02-21T02:43:09;97740.25;;;1.85;94.71
82305;BME280;71914;47.382;8.168;2024-02-21T02:45:35;97739.16;;;1.92;95.39
82305;BME280;71914;47.382;8.168;2024-02-21T02:48:01;97737.16;;;1.99;95.09
82305;BME280;71914;47.382;8.168;2024-02-21T02:50:27;97731.75;;;2.05;94.88
82305;BME280;71914;47.382;8.168;2024-02-21T02:52:53;97729.06;;;2.08;94.48
82305;BME280;71914;47.382;8.168;2024-02-21T02:55:19;97726.47;;;2.08;94.58
82305;BME280;71914;47.382;8.168;2024-02-21T02:57:46;97719.53;;;2.09;94.56
82305;BME280;71914;47.382;8.168;2024-02-21T03:00:13;97729.94;;;2.07;94.25
82305;BME280;71914;47.382;8.168;2024-02-21T03:02:41;97717.94;;;2.06;94.14
82305;BME280;71914;47.382;8.168;2024-02-21T03:05:11;97708.38;;;2.08;94.22
82305;BME280;71914;47.382;8.168;2024-02-21T03:07:37;97691.94;;;2.09;94.32
82305;BME280;71914;47.382;8.168;2024-02-21T03:10:03;97693.50;;;2.13;94.60
82305;BME280;71914;47.382;8.168;2024-02-21T03:12:29;97686.47;;;2.17;94.80
82305;BME280;71914;47.382;8.168;2024-02-21T03:14:56;97687.31;;;2.18;94.41
82305;BME280;71914;47.382;8.168;2024-02-21T03:17:22;97674.38;;;2.18;94.37
82305;BME280;71914;47.382;8.168;2024-02-21T03:19:48;97666.75;;;2.14;93.65
82305;BME280;71914;47.382;8.168;2024-02-21T03:22:15;97662.63;;;2.10;91.47
82305;BME280;71914;47.382;8.168;2024-02-21T03:24:41;97663.66;;;2.06;91.31
82305;BME280;71914;47.382;8.168;2024-02-21T03:27:07;97660.63;;;1.95;92.80
82305;BME280;71914;47.382;8.168;2024-02-21T03:29:33;97661.47;;;1.95;93.79
82305;BME280;71914;47.382;8.168;2024-02-21T03:32:00;97658.41;;;1.86;93.27
82305;BME280;71914;47.382;8.168;2024-02-21T03:34:26;97665.44;;;1.82;93.66
82305;BME280;71914;47.382;8.168;2024-02-21T03:36:51;97656.66;;;1.86;94.88
82305;BME280;71914;47.382;8.168;2024-02-21T03:39:17;97647.78;;;1.93;95.39
82305;BME280;71914;47.382;8.168;2024-02-21T03:41:42;97646.69;;;1.99;92.44
82305;BME280;71914;47.382;8.168;2024-02-21T03:44:09;97641.66;;;1.74;91.61
82305;BME280;71914;47.382;8.168;2024-02-21T03:46:34;97641.44;;;1.56;90.79
82305;BME280;71914;47.382;8.168;2024-02-21T03:49:02;97643.13;;;1.11;92.06
82305;BME280;71914;47.382;8.168;2024-02-21T03:51:27;97635.09;;;0.95;93.20
82305;BME280;71914;47.382;8.168;2024-02-21T03:53:53;97630.00;;;0.94;95.31
82305;BME280;71914;47.382;8.168;2024-02-21T03:56:19;97630.47;;;1.27;97.51
82305;BME280;71914;47.382;8.168;2024-02-21T03:58:44;97624.44;;;1.51;97.97
82305;BME280;71914;47.382;8.168;2024-02-21T04:01:10;97628.91;;;1.69;98.20
82305;BME280;71914;47.382;8.168;2024-02-21T04:03:35;97619.22;;;1.74;97.24
82305;BME280;71914;47.382;8.168;2024-02-21T04:06:03;97624.16;;;1.80;96.68
82305;BME280;71914;47.382;8.168;2024-02-21T04:08:29;97621.13;;;1.91;96.25
82305;BME280;71914;47.382;8.168;2024-02-21T04:10:54;97627.25;;;1.89;95.31
82305;BME280;71914;47.382;8.168;2024-02-21T04:13:20;97629.03;;;1.88;95.26
82305;BME280;71914;47.382;8.168;2024-02-21T04:15:47;97631.31;;;1.96;95.46
82305;BME280;71914;47.382;8.168;2024-02-21T04:18:13;97626.81;;;1.99;95.14
82305;BME280;71914;47.382;8.168;2024-02-21T04:20:40;97628.78;;;1.94;94.44
82305;BME280;71914;47.382;8.168;2024-02-21T04:23:07;97623.13;;;1.85;94.77
82305;BME280;71914;47.382;8.168;2024-02-21T04:25:32;97631.72;;;1.85;94.88
82305;BME280;71914;47.382;8.168;2024-02-21T04:27:58;97629.31;;;1.80;94.48
82305;BME280;71914;47.382;8.168;2024-02-21T04:30:23;97635.44;;;1.56;91.54
82305;BME280;71914;47.382;8.168;2024-02-21T04:32:49;97624.00;;;1.39;91.82
82305;BME280;71914;47.382;8.168;2024-02-21T04:35:15;97610.38;;;1.36;93.83
82305;BME280;71914;47.382;8.168;2024-02-21T04:37:40;97611.13;;;1.15;91.64
82305;BME280;71914;47.382;8.168;2024-02-21T04:40:08;97596.06;;;1.27;95.65
82305;BME280;71914;47.382;8.168;2024-02-21T04:42:34;97586.00;;;1.43;96.28
82305;BME280;71914;47.382;8.168;2024-02-21T04:45:00;97587.63;;;1.45;96.26
82305;BME280;71914;47.382;8.168;2024-02-21T04:47:26;97576.16;;;1.53;96.10
82305;BME280;71914;47.382;8.168;2024-02-21T04:49:52;97576.16;;;1.53;95.67
82305;BME280;71914;47.382;8.168;2024-02-21T04:52:17;97585.53;;;1.55;95.57
82305;BME280;71914;47.382;8.168;2024-02-21T04:54:43;97581.31;;;1.53;95.38
82305;BME280;71914;47.382;8.168;2024-02-21T04:57:10;97572.78;;;1.51;95.58
82305;BME280;71914;47.382;8.168;2024-02-21T04:59:36;97563.16;;;1.32;92.40
82305;BME280;71914;47.382;8.168;2024-02-21T05:02:01;97562.16;;;0.90;92.39
82305;BME280;71914;47.382;8.168;2024-02-21T05:04:27;97556.56;;;0.55;93.24
82305;BME280;71914;47.382;8.168;2024-02-21T05:06:53;97555.22;;;0.43;94.48
82305;BME280;71914;47.382;8.168;2024-02-21T05:09:19;97563.97;;;0.39;95.32
82305;BME280;71914;47.382;8.168;2024-02-21T05:11:45;97570.31;;;0.30;95.54
82305;BME280;71914;47.382;8.168;2024-02-21T05:14:12;97573.66;;;0.32;95.71
82305;BME280;71914;47.382;8.168;2024-02-21T05:16:38;97577.78;;;0.38;96.43
82305;BME280;71914;47.382;8.168;2024-02-21T05:19:05;97574.81;;;0.49;96.96
82305;BME280;71914;47.382;8.168;2024-02-21T05:21:30;97570.34;;;0.54;96.63
82305;BME280;71914;47.382;8.168;2024-02-21T05:23:56;97562.78;;;0.73;98.08
82305;BME280;71914;47.382;8.168;2024-02-21T05:26:22;97575.78;;;1.18;99.19
82305;BME280;71914;47.382;8.168;2024-02-21T05:28:48;97569.84;;;1.38;98.86
82305;BME280;71914;47.382;8.168;2024-02-21T05:31:15;97561.41;;;1.55;98.28
82305;BME280;71914;47.382;8.168;2024-02-21T05:33:41;97555.19;;;1.60;97.47
82305;BME280;71914;47.382;8.168;2024-02-21T05:36:06;97552.28;;;1.68;96.63
82305;BME280;71914;47.382;8.168;2024-02-21T05:38:32;97548.09;;;1.65;96.00
82305;BME280;71914;47.382;8.168;2024-02-21T05:40:57;97546.34;;;1.66;96.55
82305;BME280;71914;47.382;8.168;2024-02-21T05:43:23;97539.63;;;1.40;92.09
82305;BME280;71914;47.382;8.168;2024-02-21T05:45:49;97532.53;;;1.23;91.35
82305;BME280;71914;47.382;8.168;2024-02-21T05:48:16;97532.34;;;0.83;92.06
82305;BME280;71914;47.382;8.168;2024-02-21T05:50:41;97534.25;;;0.54;93.45
82305;BME280;71914;47.382;8.168;2024-02-21T05:53:07;97531.66;;;0.29;94.71
82305;BME280;71914;47.382;8.168;2024-02-21T05:55:33;97532.78;;;0.22;95.79
82305;BME280;71914;47.382;8.168;2024-02-21T05:57:58;97538.88;;;0.44;97.90
82305;BME280;71914;47.382;8.168;2024-02-21T06:00:24;97541.72;;;0.84;99.70
82305;BME280;71914;47.382;8.168;2024-02-21T06:02:50;97530.91;;;0.98;99.19
82305;BME280;71914;47.382;8.168;2024-02-21T06:05:17;97527.38;;;1.01;98.88
82305;BME280;71914;47.382;8.168;2024-02-21T06:07:42;97525.09;;;1.15;99.13
82305;BME280;71914;47.382;8.168;2024-02-21T06:10:08;97523.78;;;1.27;98.93
82305;BME280;71914;47.382;8.168;2024-02-21T06:12:34;97532.81;;;0.93;95.69
82305;BME280;71914;47.382;8.168;2024-02-21T06:15:00;97528.41;;;0.73;93.83
82305;BME280;71914;47.382;8.168;2024-02-21T06:17:25;97543.69;;;0.54;93.91
82305;BME280;71914;47.382;8.168;2024-02-21T06:19:51;97528.00;;;0.36;95.06
82305;BME280;71914;47.382;8.168;2024-02-21T06:22:18;97527.94;;;0.38;95.19
82305;BME280;71914;47.382;8.168;2024-02-21T06:24:43;97536.38;;;0.18;95.63
82305;BME280;71914;47.382;8.168;2024-02-21T06:27:09;97540.03;;;0.10;96.42
82305;BME280;71914;47.382;8.168;2024-02-21T06:29:36;97543.63;;;0.06;96.79
82305;BME280;71914;47.382;8.168;2024-02-21T06:32:02;97547.31;;;0.24;98.75
82305;BME280;71914;47.382;8.168;2024-02-21T06:34:28;97538.88;;;0.68;100.00
82305;BME280;71914;47.382;8.168;2024-02-21T06:36:54;97545.78;;;0.91;100.00
82305;BME280;71914;47.382;8.168;2024-02-21T06:39:21;97541.84;;;0.57;97.82
82305;BME280;71914;47.382;8.168;2024-02-21T06:41:48;97540.16;;;0.32;95.60
82305;BME280;71914;47.382;8.168;2024-02-21T06:44:15;97539.28;;;0.08;95.65
82305;BME280;71914;47.382;8.168;2024-02-21T06:46:41;97542.41;;;-0.09;96.13
82305;BME280;71914;47.382;8.168;2024-02-21T06:49:07;97542.78;;;-0.20;96.50
82305;BME280;71914;47.382;8.168;2024-02-21T06:51:32;97538.53;;;-0.21;97.19
82305;BME280;71914;47.382;8.168;2024-02-21T06:53:59;97530.94;;;-0.25;96.97
82305;BME280;71914;47.382;8.168;2024-02-21T06:56:26;97535.25;;;-0.26;98.31
82305;BME280;71914;47.382;8.168;2024-02-21T06:58:54;97538.00;;;0.20;100.00
82305;BME280;71914;47.382;8.168;2024-02-21T07:01:19;97539.50;;;0.51;100.00
82305;BME280;71914;47.382;8.168;2024-02-21T07:03:45;97543.47;;;0.36;98.97
82305;BME280;71914;47.382;8.168;2024-02-21T07:06:10;97541.84;;;0.33;97.56
82305;BME280;71914;47.382;8.168;2024-02-21T07:08:36;97542.59;;;0.61;100.00
82305;BME280;71914;47.382;8.168;2024-02-21T07:11:02;97544.28;;;0.62;98.45
82305;BME280;71914;47.382;8.168;2024-02-21T07:13:30;97544.22;;;0.63;97.28
82305;BME280;71914;47.382;8.168;2024-02-21T07:15:55;97543.31;;;0.88;100.00
82305;BME280;71914;47.382;8.168;2024-02-21T07:18:21;97539.09;;;1.09;100.00
82305;BME280;71914;47.382;8.168;2024-02-21T07:20:46;97543.00;;;1.20;99.78
82305;BME280;71914;47.382;8.168;2024-02-21T07:23:12;97541.47;;;1.14;96.77
82305;BME280;71914;47.382;8.168;2024-02-21T07:25:38;97544.25;;;1.09;95.98
82305;BME280;71914;47.382;8.168;2024-02-21T07:28:05;97539.03;;;1.11;95.60
82305;BME280;71914;47.382;8.168;2024-02-21T07:30:32;97532.72;;;1.18;95.68
82305;BME280;71914;47.382;8.168;2024-02-21T07:32:57;97549.94;;;1.18;95.82
82305;BME280;71914;47.382;8.168;2024-02-21T07:35:23;97535.28;;;1.18;95.40
82305;BME280;71914;47.382;8.168;2024-02-21T07:37:49;97538.44;;;1.26;96.22
82305;BME280;71914;47.382;8.168;2024-02-21T07:40:15;97535.41;;;1.59;98.63
82305;BME280;71914;47.382;8.168;2024-02-21T07:42:41;97538.72;;;1.83;98.61
82305;BME280;71914;47.382;8.168;2024-02-21T07:45:07;97540.41;;;1.85;94.74
82305;BME280;71914;47.382;8.168;2024-02-21T07:47:35;97545.72;;;1.81;93.70
82305;BME280;71914;47.382;8.168;2024-02-21T07:50:02;97542.50;;;1.76;92.55
82305;BME280;71914;47.382;8.168;2024-02-21T07:52:28;97532.47;;;1.69;92.62
82305;BME280;71914;47.382;8.168;2024-02-21T07:54:53;97539.41;;;1.66;93.01
82305;BME280;71914;47.382;8.168;2024-02-21T07:57:19;97526.31;;;1.71;93.27
82305;BME280;71914;47.382;8.168;2024-02-21T07:59:45;97517.09;;;1.86;93.37
82305;BME280;71914;47.382;8.168;2024-02-21T08:02:13;97516.25;;;1.86;92.87
82305;BME280;71914;47.382;8.168;2024-02-21T08:04:40;97507.66;;;2.06;95.70
82305;BME280;71914;47.382;8.168;2024-02-21T08:07:05;97504.44;;;2.40;97.63
82305;BME280;71914;47.382;8.168;2024-02-21T08:09:31;97496.78;;;2.58;93.13
82305;BME280;71914;47.382;8.168;2024-02-21T08:11:57;97494.63;;;2.48;91.88
82305;BME280;71914;47.382;8.168;2024-02-21T08:14:23;97493.91;;;2.45;91.70
82305;BME280;71914;47.382;8.168;2024-02-21T08:16:49;97493.97;;;2.43;90.94
82305;BME280;71914;47.382;8.168;2024-02-21T08:19:15;97493.91;;;2.45;90.85
82305;BME280;71914;47.382;8.168;2024-02-21T08:21:42;97507.75;;;2.44;90.68
82305;BME280;71914;47.382;8.168;2024-02-21T08:24:08;97503.69;;;2.38;91.37
82305;BME280;71914;47.382;8.168;2024-02-21T08:26:34;97497.72;;;2.36;92.25
82305;BME280;71914;47.382;8.168;2024-02-21T08:29:01;97495.31;;;2.52;92.13
82305;BME280;71914;47.382;8.168;2024-02-21T08:31:27;97494.53;;;2.69;93.42
82305;BME280;71914;47.382;8.168;2024-02-21T08:34:00;97487.41;;;2.74;90.87
82305;BME280;71914;47.382;8.168;2024-02-21T08:36:28;97482.16;;;2.57;90.67
82305;BME280;71914;47.382;8.168;2024-02-21T08:38:56;97494.31;;;2.55;91.39
82305;BME280;71914;47.382;8.168;2024-02-21T08:41:23;97484.84;;;2.55;90.92
82305;BME280;71914;47.382;8.168;2024-02-21T08:43:49;97490.56;;;2.62;91.21
82305;BME280;71914;47.382;8.168;2024-02-21T08:46:15;97499.16;;;2.62;90.93
82305;BME280;71914;47.382;8.168;2024-02-21T08:48:40;97487.72;;;2.68;91.16
82305;BME280;71914;47.382;8.168;2024-02-21T08:51:06;97482.03;;;2.79;91.27
82305;BME280;71914;47.382;8.168;2024-02-21T08:53:32;97479.22;;;3.03;91.33
82305;BME280;71914;47.382;8.168;2024-02-21T08:55:59;97477.28;;;3.25;92.84
82305;BME280;71914;47.382;8.168;2024-02-21T08:58:24;97472.69;;;3.49;89.11
82305;BME280;71914;47.382;8.168;2024-02-21T09:00:52;97469.09;;;3.70;87.35
82305;BME280;71914;47.382;8.168;2024-02-21T09:03:17;97478.22;;;3.77;88.97
82305;BME280;71914;47.382;8.168;2024-02-21T09:05:45;97473.28;;;3.90;87.28
82305;BME280;71914;47.382;8.168;2024-02-21T09:08:11;97476.91;;;4.03;87.04
82305;BME280;71914;47.382;8.168;2024-02-21T09:10:36;97466.78;;;3.98;87.40
82305;BME280;71914;47.382;8.168;2024-02-21T09:13:03;97468.56;;;3.98;87.04
82305;BME280;71914;47.382;8.168;2024-02-21T09:15:29;97467.72;;;3.97;86.87
82305;BME280;71914;47.382;8.168;2024-02-21T09:17:54;97470.06;;;4.02;87.04
82305;BME280;71914;47.382;8.168;2024-02-21T09:20:20;97465.56;;;4.06;86.72
82305;BME280;71914;47.382;8.168;2024-02-21T09:22:46;97459.97;;;4.13;86.28
82305;BME280;71914;47.382;8.168;2024-02-21T09:25:12;97456.75;;;4.26;89.64
82305;BME280;71914;47.382;8.168;2024-02-21T09:27:37;97460.16;;;4.44;88.36
82305;BME280;71914;47.382;8.168;2024-02-21T09:30:06;97437.91;;;4.56;85.35
82305;BME280;71914;47.382;8.168;2024-02-21T09:32:32;97440.72;;;4.51;84.86
82305;BME280;71914;47.382;8.168;2024-02-21T09:35:01;97445.97;;;4.34;85.50
82305;BME280;71914;47.382;8.168;2024-02-21T09:37:27;97443.97;;;4.39;85.22
82305;BME280;71914;47.382;8.168;2024-02-21T09:39:52;97434.03;;;4.47;85.46
82305;BME280;71914;47.382;8.168;2024-02-21T09:42:20;97430.66;;;4.61;83.68
82305;BME280;71914;47.382;8.168;2024-02-21T09:44:47;97423.97;;;4.73;85.07
82305;BME280;71914;47.382;8.168;2024-02-21T09:47:19;97425.75;;;4.72;83.62
82305;BME280;71914;47.382;8.168;2024-02-21T09:49:46;97418.78;;;4.73;83.45
82305;BME280;71914;47.382;8.168;2024-02-21T09:52:14;97423.66;;;4.79;82.75
82305;BME280;71914;47.382;8.168;2024-02-21T09:54:41;97419.34;;;5.10;82.51
82305;BME280;71914;47.382;8.168;2024-02-21T09:57:10;97426.94;;;5.29;80.91
82305;BME280;71914;47.382;8.168;2024-02-21T09:59:37;97416.44;;;5.46;79.90
82305;BME280;71914;47.382;8.168;2024-02-21T10:02:03;97412.63;;;5.52;83.17
82305;BME280;71914;47.382;8.168;2024-02-21T10:04:31;97412.63;;;5.52;81.45
82305;BME280;71914;47.382;8.168;2024-02-21T10:06:57;97410.25;;;5.63;82.65
82305;BME280;71914;47.382;8.168;2024-02-21T10:09:23;97421.22;;;5.99;78.77
82305;BME280;71914;47.382;8.168;2024-02-21T10:11:49;97409.13;;;5.98;77.13
82305;BME280;71914;47.382;8.168;2024-02-21T10:14:16;97416.44;;;5.91;79.07
82305;BME280;71914;47.382;8.168;2024-02-21T10:16:41;97404.81;;;5.97;78.92
82305;BME280;71914;47.382;8.168;2024-02-21T10:19:16;97399.44;;;6.00;78.88
82305;BME280;71914;47.382;8.168;2024-02-21T10:21:43;97396.69;;;6.03;78.37
82305;BME280;71914;47.382;8.168;2024-02-21T10:24:11;97393.16;;;6.19;79.32
82305;BME280;71914;47.382;8.168;2024-02-21T10:26:37;97380.59;;;6.25;80.62
82305;BME280;71914;47.382;8.168;2024-02-21T10:29:03;97385.41;;;6.31;80.63
82305;BME280;71914;47.382;8.168;2024-02-21T10:31:29;97381.03;;;6.46;80.90
82305;BME280;71914;47.382;8.168;2024-02-21T10:33:56;97386.66;;;6.68;79.98
82305;BME280;71914;47.382;8.168;2024-02-21T10:36:22;97374.94;;;6.60;78.49
82305;BME280;71914;47.382;8.168;2024-02-21T10:38:51;97381.56;;;6.66;76.39
82305;BME280;71914;47.382;8.168;2024-02-21T10:41:19;97374.78;;;6.91;74.22
82305;BME280;71914;47.382;8.168;2024-02-21T10:43:50;97366.91;;;7.05;74.17
82305;BME280;71914;47.382;8.168;2024-02-21T10:46:19;97360.19;;;7.28;72.61
82305;BME280;71914;47.382;8.168;2024-02-21T10:48:45;97365.38;;;7.28;72.57
82305;BME280;71914;47.382;8.168;2024-02-21T10:51:15;97363.72;;;7.27;72.12
82305;BME280;71914;47.382;8.168;2024-02-21T10:53:50;97354.47;;;7.36;71.42
82305;BME280;71914;47.382;8.168;2024-02-21T10:56:30;97342.25;;;7.50;70.60
82305;BME280;71914;47.382;8.168;2024-02-21T10:58:57;97347.47;;;7.50;73.29
82305;BME280;71914;47.382;8.168;2024-02-21T11:01:23;97334.44;;;7.50;70.97
82305;BME280;71914;47.382;8.168;2024-02-21T11:03:51;97339.28;;;7.81;70.85
82305;BME280;71914;47.382;8.168;2024-02-21T11:06:19;97327.97;;;8.07;74.64
82305;BME280;71914;47.382;8.168;2024-02-21T11:08:45;97314.03;;;8.19;69.88
82305;BME280;71914;47.382;8.168;2024-02-21T11:11:12;97305.03;;;8.23;67.54
82305;BME280;71914;47.382;8.168;2024-02-21T11:13:44;97298.19;;;8.22;66.30
82305;BME280;71914;47.382;8.168;2024-02-21T11:16:12;97302.94;;;8.28;68.99
82305;BME280;71914;47.382;8.168;2024-02-21T11:18:46;97296.25;;;8.37;68.92
82305;BME280;71914;47.382;8.168;2024-02-21T11:21:12;97288.19;;;8.40;66.67
82305;BME280;71914;47.382;8.168;2024-02-21T11:23:37;97289.97;;;8.40;65.21
82305;BME280;71914;47.382;8.168;2024-02-21T11:26:06;97286.03;;;8.34;66.26
82305;BME280;71914;47.382;8.168;2024-02-21T11:28:35;97273.25;;;8.42;64.71
82305;BME280;71914;47.382;8.168;2024-02-21T11:31:09;97274.06;;;8.43;66.40
82305;BME280;71914;47.382;8.168;2024-02-21T11:33:39;97268.31;;;8.51;64.29
82305;BME280;71914;47.382;8.168;2024-02-21T11:36:05;97251.72;;;8.52;63.81
82305;BME280;71914;47.382;8.168;2024-02-21T11:38:30;97255.06;;;8.54;64.71
82305;BME280;71914;47.382;8.168;2024-02-21T11:40:56;97239.31;;;8.67;65.80
82305;BME280;71914;47.382;8.168;2024-02-21T11:43:23;97235.63;;;8.69;64.76
82305;BME280;71914;47.382;8.168;2024-02-21T11:45:49;97236.88;;;8.76;66.13
82305;BME280;71914;47.382;8.168;2024-02-21T11:48:16;97228.94;;;8.89;62.81
82305;BME280;71914;47.382;8.168;2024-02-21T11:50:42;97229.53;;;8.93;63.44
82305;BME280;71914;47.382;8.168;2024-02-21T11:53:07;97227.41;;;8.98;62.61
82305;BME280;71914;47.382;8.168;2024-02-21T11:55:34;97224.72;;;9.00;61.59
82305;BME280;71914;47.382;8.168;2024-02-21T11:57:59;97223.16;;;9.08;62.45
82305;BME280;71914;47.382;8.168;2024-02-21T12:00:25;97213.06;;;9.15;61.08
82305;BME280;71914;47.382;8.168;2024-02-21T12:02:51;97211.06;;;9.19;59.86
82305;BME280;71914;47.382;8.168;2024-02-21T12:05:19;97195.97;;;9.22;60.32
82305;BME280;71914;47.382;8.168;2024-02-21T12:07:46;97198.34;;;9.25;58.91
82305;BME280;71914;47.382;8.168;2024-02-21T12:10:12;97190.63;;;9.24;59.50
82305;BME280;71914;47.382;8.168;2024-02-21T12:12:38;97191.94;;;9.29;59.70
82305;BME280;71914;47.382;8.168;2024-02-21T12:15:05;97186.56;;;9.31;60.32
82305;BME280;71914;47.382;8.168;2024-02-21T12:17:32;97180.75;;;9.50;60.20
82305;BME280;71914;47.382;8.168;2024-02-21T12:19:58;97169.34;;;9.51;59.99
82305;BME280;71914;47.382;8.168;2024-02-21T12:22:26;97166.00;;;9.49;58.27
82305;BME280;71914;47.382;8.168;2024-02-21T12:24:53;97158.03;;;9.51;59.46
82305;BME280;71914;47.382;8.168;2024-02-21T12:27:18;97156.63;;;9.46;58.27
82305;BME280;71914;47.382;8.168;2024-02-21T12:29:44;97151.16;;;9.38;57.85
82305;BME280;71914;47.382;8.168;2024-02-21T12:32:10;97145.34;;;9.35;57.73
82305;BME280;71914;47.382;8.168;2024-02-21T12:34:35;97138.44;;;9.34;57.87
82305;BME280;71914;47.382;8.168;2024-02-21T12:37:02;97135.47;;;9.38;57.99
82305;BME280;71914;47.382;8.168;2024-02-21T12:39:30;97146.66;;;9.40;57.79
82305;BME280;71914;47.382;8.168;2024-02-21T12:41:57;97142.25;;;9.52;60.04
82305;BME280;71914;47.382;8.168;2024-02-21T12:44:22;97126.56;;;9.41;59.42
82305;BME280;71914;47.382;8.168;2024-02-21T12:46:49;97116.66;;;9.56;59.19
82305;BME280;71914;47.382;8.168;2024-02-21T12:49:18;97116.06;;;9.63;60.50
82305;BME280;71914;47.382;8.168;2024-02-21T12:51:43;97111.66;;;9.64;60.63
82305;BME280;71914;47.382;8.168;2024-02-21T12:54:11;97102.75;;;9.67;59.04
82305;BME280;71914;47.382;8.168;2024-02-21T12:56:38;97108.53;;;9.70;57.66
82305;BME280;71914;47.382;8.168;2024-02-21T12:59:05;97087.34;;;9.85;59.00
82305;BME280;71914;47.382;8.168;2024-02-21T13:01:30;97095.03;;;9.97;58.72
82305;BME280;71914;47.382;8.168;2024-02-21T13:03:56;97080.41;;;9.95;58.15
82305;BME280;71914;47.382;8.168;2024-02-21T13:06:24;97074.47;;;9.93;57.83